KXVG

Details ICAO KXVG
Name LONGVILLE MUNI
Region United States
Timezone America/Chicago (UTC-6.0)
Plans Departing 2
Arriving 0
Stats Elevation 1,334 ft / 407 m (AMSL)
Location 46.990162° -94.204004°
Runways 1
Magnetic Variation 0.770° E
Sunrise 2017-12-15 13:57:27 UTC / 2017-12-15 07:57:27 Local
Sunset 2017-12-15 22:29:32 UTC / 2017-12-15 16:29:32 Local
Advertisement - Login to hide

Runways

ID Width Length Bearing (true) Bearing (mag) Surface Threshold Offset Overrun Length
13 75 ft / 23 m 3,776 ft / 1,151 m 129.81° 129.04° Asphalt 690 ft / 210 m 0 ft / 0 m
31 75 ft / 23 m 3,776 ft / 1,151 m 309.81° 309.04° Asphalt 0 ft / 0 m 0 ft / 0 m

Map

Weather


0- 5 10 15 20 25 30 35+ Temperature / ° C

Clouds and Precipitation
Forecast for 2017-12-15 06:00 UTC. Updated an hour ago

Ground ~20,000 ft ~40,000 ft Winds

METAR

KXVG 150635Z AUTO 31004KT 10SM -SN OVC014 M10/M12 A2990 RMK AO2

TAF

Not found

Frequencies

Unicom 122.90 MHz CTAF
Warning: Do not use this data for real-world aviation or navigation. No guarantee of current accuracy is given.